createdAt,value
2022-08-17T00:00:01.257Z,10.70
2022-08-17T00:05:36.990Z,11.20
2022-08-17T00:10:44.534Z,10.50
2022-08-17T00:16:21.704Z,9.90
2022-08-17T00:22:32.677Z,10.40
2022-08-17T00:27:44.407Z,10.90
2022-08-17T00:33:14.716Z,11.60
2022-08-17T00:38:29.640Z,10.80
2022-08-17T00:43:54.310Z,8.80
2022-08-17T00:49:20.028Z,10.20
2022-08-17T00:55:01.209Z,10.20
2022-08-17T01:02:02.092Z,10.70
2022-08-17T01:07:37.970Z,10.50
2022-08-17T01:13:41.083Z,10.50
2022-08-17T01:19:27.195Z,9.40
2022-08-17T01:25:02.933Z,10.10
2022-08-17T01:31:01.099Z,10.60
2022-08-17T01:36:34.186Z,10.70
2022-08-17T01:42:44.054Z,9.50
2022-08-17T01:48:48.593Z,9.30
2022-08-17T01:54:37.968Z,10.30
2022-08-17T02:00:48.322Z,10.20
2022-08-17T02:06:53.186Z,10.70
2022-08-17T02:12:47.940Z,10.70
2022-08-17T02:19:11.472Z,10.60
2022-08-17T02:25:28.790Z,10.90
2022-08-17T02:31:33.154Z,10.90
2022-08-17T02:37:36.109Z,12.70
2022-08-17T02:44:53.141Z,12.00
2022-08-17T02:51:40.907Z,13.80
2022-08-17T02:57:56.411Z,11.70
2022-08-17T03:04:08.646Z,11.00
2022-08-17T03:10:35.101Z,12.10
2022-08-17T03:17:38.953Z,13.10
2022-08-17T03:24:08.720Z,13.70
2022-08-17T03:30:27.144Z,13.30
2022-08-17T03:37:37.209Z,14.30
2022-08-17T03:44:09.486Z,11.60
2022-08-17T03:50:18.594Z,12.50
2022-08-17T03:57:02.907Z,12.10
2022-08-17T04:03:26.712Z,12.60
2022-08-17T04:10:33.883Z,11.80
2022-08-17T04:16:25.953Z,13.50
2022-08-17T04:22:31.346Z,13.30
2022-08-17T04:27:50.292Z,14.30
2022-08-17T04:33:29.734Z,12.80
2022-08-17T04:39:05.362Z,12.90
2022-08-17T04:44:37.397Z,14.80
2022-08-17T04:49:53.695Z,15.50
2022-08-17T04:55:16.148Z,14.00
2022-08-17T05:00:45.698Z,13.10
2022-08-17T05:06:22.838Z,13.60
2022-08-17T05:11:39.945Z,13.20
2022-08-17T05:17:36.169Z,13.60
2022-08-17T05:23:07.955Z,14.40
2022-08-17T05:28:34.175Z,13.70
2022-08-17T05:34:09.647Z,14.10
2022-08-17T05:39:29.473Z,15.30
2022-08-17T05:45:39.988Z,13.60
2022-08-17T05:51:34.650Z,13.20
2022-08-17T05:57:54.212Z,14.40
2022-08-17T06:09:33.782Z,15.30
2022-08-17T06:15:08.089Z,13.30
2022-08-17T06:20:14.503Z,13.20
2022-08-17T06:25:31.880Z,14.10
2022-08-17T06:31:07.751Z,13.20
2022-08-17T06:36:48.101Z,14.40
2022-08-17T06:42:54.759Z,14.20
2022-08-17T06:48:27.496Z,13.40
2022-08-17T06:53:42.140Z,13.70
2022-08-17T06:58:59.684Z,12.90
2022-08-17T07:04:35.595Z,11.80
2022-08-17T07:09:43.605Z,12.60
2022-08-17T07:15:11.345Z,13.40
2022-08-17T07:20:25.100Z,12.90
2022-08-17T07:25:32.522Z,12.80
2022-08-17T07:30:59.554Z,13.50
2022-08-17T07:36:13.230Z,12.30
2022-08-17T07:41:57.826Z,13.20
2022-08-17T07:47:24.032Z,11.40
2022-08-17T07:52:50.307Z,12.30
2022-08-17T07:58:02.164Z,11.80
2022-08-17T08:03:44.071Z,12.10
2022-08-17T08:09:40.829Z,11.70
2022-08-17T08:15:02.810Z,11.50
2022-08-17T08:20:42.480Z,12.50
2022-08-17T08:26:02.100Z,11.40
2022-08-17T08:31:46.420Z,11.70
2022-08-17T08:37:12.572Z,11.30
2022-08-17T08:42:43.072Z,10.90
2022-08-17T08:53:52.897Z,10.50
2022-08-17T08:59:30.162Z,10.00
2022-08-17T09:05:15.993Z,10.10
2022-08-17T09:10:56.926Z,9.80
2022-08-17T09:16:06.993Z,10.30
2022-08-17T09:21:48.594Z,11.00
2022-08-17T09:27:22.846Z,9.50
2022-08-17T09:33:04.289Z,8.70
2022-08-17T09:38:52.419Z,9.50
2022-08-17T09:44:23.263Z,9.50
2022-08-17T09:49:44.856Z,9.50
2022-08-17T09:54:52.688Z,9.40
2022-08-17T10:00:34.319Z,8.90
2022-08-17T10:06:08.532Z,9.50
2022-08-17T10:16:52.414Z,8.90
2022-08-17T10:22:35.364Z,9.40
2022-08-17T10:28:19.781Z,9.30
2022-08-17T10:33:29.167Z,8.60
2022-08-17T10:39:00.295Z,8.80
2022-08-17T10:44:38.282Z,9.20
2022-08-17T10:49:47.842Z,9.50
2022-08-17T10:55:09.871Z,7.70
2022-08-17T11:00:43.619Z,8.00
2022-08-17T11:06:06.997Z,8.40
2022-08-17T11:11:49.878Z,8.30
2022-08-17T11:17:41.615Z,8.20
2022-08-17T11:23:24.001Z,7.30
2022-08-17T11:28:35.415Z,7.90
2022-08-17T11:34:06.849Z,7.80
2022-08-17T11:39:47.403Z,7.70
2022-08-17T11:45:54.023Z,8.10
2022-08-17T11:51:44.924Z,7.30
2022-08-17T11:56:52.970Z,7.50
2022-08-17T12:02:20.136Z,8.30
2022-08-17T12:07:23.827Z,7.90
2022-08-17T12:12:37.175Z,7.60
2022-08-17T12:17:46.880Z,7.60
2022-08-17T12:23:18.674Z,7.90
2022-08-17T12:28:35.368Z,8.30
2022-08-17T12:33:45.397Z,6.90
2022-08-17T12:39:13.306Z,8.10
2022-08-17T12:44:24.385Z,7.70
2022-08-17T12:49:35.676Z,7.40
2022-08-17T12:55:05.436Z,7.80
2022-08-17T13:00:33.447Z,7.60
2022-08-17T13:06:06.519Z,8.00
2022-08-17T13:11:35.157Z,8.10
2022-08-17T13:16:37.882Z,7.90
2022-08-17T13:21:59.303Z,8.10
2022-08-17T13:27:08.319Z,8.10
2022-08-17T13:32:33.636Z,7.90
2022-08-17T13:37:36.739Z,8.60
2022-08-17T13:42:52.667Z,7.50
2022-08-17T13:48:32.092Z,7.90
2022-08-17T13:54:10.389Z,7.90
2022-08-17T13:59:52.917Z,7.60
2022-08-17T14:05:06.456Z,7.80
2022-08-17T14:10:20.825Z,7.40
2022-08-17T14:15:53.947Z,7.10
2022-08-17T14:20:48.504Z,6.50
2022-08-17T14:26:13.556Z,5.90
2022-08-17T14:31:19.899Z,6.20
2022-08-17T14:36:49.501Z,6.30
2022-08-17T14:42:10.401Z,6.70
2022-08-17T14:47:15.926Z,7.50
2022-08-17T14:52:21.853Z,7.60
2022-08-17T15:02:46.135Z,8.00
2022-08-17T15:08:08.427Z,6.90
2022-08-17T15:13:30.465Z,6.50
2022-08-17T15:18:49.483Z,6.60
2022-08-17T15:23:57.776Z,6.30
2022-08-17T15:29:42.153Z,6.70
2022-08-17T15:34:59.244Z,6.10
2022-08-17T15:40:06.361Z,6.50
2022-08-17T15:45:58.811Z,6.00
2022-08-17T15:51:33.358Z,6.30
2022-08-17T15:56:42.067Z,6.10
2022-08-17T16:03:13.028Z,6.70
2022-08-17T16:07:17.636Z,6.30
2022-08-17T16:12:22.026Z,5.90
2022-08-17T16:17:39.143Z,6.10
2022-08-17T16:22:46.496Z,6.70
2022-08-17T16:27:55.328Z,6.60
2022-08-17T16:33:03.928Z,6.70
2022-08-17T16:38:07.378Z,6.60
2022-08-17T16:43:18.836Z,6.50
2022-08-17T16:48:34.403Z,6.20
2022-08-17T16:53:44.398Z,6.70
2022-08-17T16:59:31.054Z,6.80
2022-08-17T17:05:06.771Z,7.20
2022-08-17T17:10:22.853Z,7.60
2022-08-17T17:16:06.512Z,7.20
2022-08-17T17:22:45.026Z,7.00
2022-08-17T17:28:46.564Z,6.90
2022-08-17T17:34:18.818Z,8.20
2022-08-17T17:39:44.789Z,7.50
2022-08-17T17:45:29.789Z,7.50
2022-08-17T17:51:58.152Z,7.30
2022-08-17T17:57:14.015Z,7.40
2022-08-17T18:02:53.383Z,7.50
2022-08-17T18:08:21.066Z,7.60
2022-08-17T18:14:00.452Z,8.20
2022-08-17T18:19:26.443Z,8.60
2022-08-17T18:24:41.361Z,10.50
2022-08-17T18:30:53.150Z,11.20
2022-08-17T18:36:44.839Z,10.50
2022-08-17T18:42:46.585Z,10.50
2022-08-17T18:48:20.086Z,11.00
2022-08-17T18:53:53.283Z,10.80
2022-08-17T18:59:41.462Z,10.70
2022-08-17T19:06:13.557Z,11.80
2022-08-17T19:11:50.270Z,12.10
2022-08-17T19:17:30.018Z,11.60
2022-08-17T19:23:53.778Z,11.70
2022-08-17T19:30:07.844Z,11.90
2022-08-17T19:36:23.126Z,12.10
2022-08-17T19:43:01.640Z,11.20
2022-08-17T19:49:49.467Z,12.00
2022-08-17T19:55:52.439Z,10.60
2022-08-17T20:01:14.046Z,11.10
2022-08-17T20:06:28.961Z,12.30
2022-08-17T20:11:44.376Z,10.70
2022-08-17T20:16:50.218Z,10.80
2022-08-17T20:22:18.439Z,11.50
2022-08-17T20:27:31.855Z,12.10
2022-08-17T20:32:58.364Z,11.80
2022-08-17T20:38:31.716Z,12.10
2022-08-17T20:43:33.661Z,13.00
2022-08-17T20:48:52.325Z,13.10
2022-08-17T20:54:29.506Z,12.60
2022-08-17T20:59:43.326Z,12.40
2022-08-17T21:04:56.995Z,12.50
2022-08-17T21:10:23.770Z,12.10
2022-08-17T21:15:48.698Z,11.60
2022-08-17T21:21:33.250Z,11.30
2022-08-17T21:27:20.404Z,12.60
2022-08-17T21:32:30.128Z,12.30
2022-08-17T21:38:13.532Z,12.40
2022-08-17T21:43:47.572Z,12.70
2022-08-17T21:49:14.341Z,13.20
2022-08-17T21:54:44.494Z,12.70
2022-08-17T22:00:26.619Z,13.80
2022-08-17T22:06:01.659Z,14.70
2022-08-17T22:12:07.621Z,13.10
2022-08-17T22:17:58.956Z,13.40
2022-08-17T22:24:05.670Z,13.70
2022-08-17T22:30:11.869Z,14.20
2022-08-17T22:36:18.544Z,15.50
2022-08-17T22:42:12.700Z,14.40
2022-08-17T22:47:39.614Z,15.80
2022-08-17T22:54:00.124Z,15.00
2022-08-17T23:00:01.139Z,14.50
2022-08-17T23:07:03.864Z,14.70
2022-08-17T23:12:29.678Z,14.30
2022-08-17T23:18:17.939Z,14.40
2022-08-17T23:24:10.186Z,15.20
2022-08-17T23:30:55.243Z,13.70
2022-08-17T23:37:04.379Z,14.40
2022-08-17T23:43:28.424Z,15.50
2022-08-17T23:48:48.380Z,15.30
2022-08-17T23:54:21.415Z,16.00
